Terminal Aerodrome Forecast
Issued by NWS Houston/Galveston, TX

Home | Current Version | Previous Version | Text Only | Print | Product List | Glossary On
Versions: 1 2 3 4 5 6 7 8 9 10 11 12 13 14 15 16 17 18 19 20 21 22 23
000
FTUS44 KHGX 252339
TAFCLL
TAF
KCLL 252339Z 2600/2624 14010KT P6SM FEW070 SCT250
     FM260500 17007KT P6SM SCT020
     FM260900 16006KT 6SM BR BKN018
     FM261400 17009KT P6SM SCT020
     FM261800 18012KT P6SM SCT050=

USA.gov is the U.S. government's official web portal to all federal, state and local government web resources and services.